»·PEaware :: ASA1 KSNA-KPDX

ASA1 :: KSNA-KPDX

FLIGHT INFORMATION

Flight Status: Arrived
Operator:
Alaska Airlines
More flights by this operator :: More flights under this callsign
Pilot: Steve F. (26981)
Aircraft: BOEING 737-800
(B738)
More flights by this aircraft type
Origin: KSNA John Wayne-Orange Co
United States
Destination: KPDX Portland Intl
United States
More flights between these airports :: More routes between these airports
Route: +HHERO3 IKAYE TESEA SCTRR SNS SPNSR TMBRS2
File this flight plan on PilotEdge
Remarks:
Altitude:
(Current/Filed)
38,000ft
Speed:
(Current/Filed)
430kts
Departed: 12-Jul-20 10:00 AM
Arrived: 12-Jul-20 12:05 PM
Distance/Time
Traveled:
747nm/2:05
Distance/Time
To Go:
Arrived

Flight Plot

Page will automatically refresh every two minutes.


Map Options




Map Legend


Flown Route
Filed Route
Departure Airport
Arrival Airport
Navaid (VOR, NDB)
Fix

Horizontal Profiles

Position Reports

Time Latitude Longitude Heading Altitude Ground
Speed
12-Jul-20 09:42 33.677039 -117.863236 0 64ft 0kts
12-Jul-20 09:44 33.677039 -117.863236 115 64ft 0kts
12-Jul-20 09:45 33.677039 -117.863236 115 64ft 0kts
12-Jul-20 09:46 33.677039 -117.863236 115 64ft 0kts
12-Jul-20 09:47 33.677039 -117.863236 115 64ft 0kts
12-Jul-20 09:48 33.677039 -117.863236 115 64ft 0kts
12-Jul-20 09:49 33.677039 -117.863236 115 64ft 0kts
12-Jul-20 09:50 33.677039 -117.863236 115 64ft 0kts
12-Jul-20 09:51 33.677058 -117.863282 115 64ft 1kts
12-Jul-20 09:52 33.676909 -117.864110 34 64ft 2kts
12-Jul-20 09:53 33.676852 -117.864150 26 64ft 0kts
12-Jul-20 09:54 33.676853 -117.864150 26 64ft 0kts
12-Jul-20 09:55 33.677407 -117.864082 2 64ft 4kts
12-Jul-20 09:56 33.678760 -117.863424 26 64ft 5kts
12-Jul-20 09:57 33.680298 -117.862587 343 64ft 5kts
12-Jul-20 09:58 33.681441 -117.864942 297 64ft 6kts
12-Jul-20 09:59 33.675153 -117.869178 207 64ft 113kts
12-Jul-20 10:00 33.633632 -117.889611 185 2051ft 179kts
12-Jul-20 10:01 33.576456 -117.900593 195 3336ft 239kts
12-Jul-20 10:02 33.520873 -117.956086 226 5277ft 280kts
12-Jul-20 10:03 33.468468 -118.025703 239 7877ft 285kts
12-Jul-20 10:04 33.427916 -118.109252 239 10541ft 293kts
12-Jul-20 10:05 33.422350 -118.211453 278 12292ft 348kts
12-Jul-20 10:06 33.450909 -118.328755 293 13933ft 393kts
12-Jul-20 10:07 33.503345 -118.446388 296 16286ft 406kts
12-Jul-20 10:08 33.567691 -118.560237 307 18466ft 419kts
12-Jul-20 10:09 33.640306 -118.672897 309 20131ft 437kts
12-Jul-20 10:10 33.739946 -118.758502 332 21723ft 449kts
12-Jul-20 10:11 33.852310 -118.828619 332 23098ft 459kts
12-Jul-20 10:12 33.966918 -118.899872 332 24315ft 468kts
12-Jul-20 10:13 34.083138 -118.972661 332 25501ft 473kts
12-Jul-20 10:14 34.190506 -119.065121 315 26523ft 478kts
12-Jul-20 10:15 34.285237 -119.179358 314 27493ft 484kts
12-Jul-20 10:16 34.381201 -119.294945 313 28354ft 489kts
12-Jul-20 10:17 34.477576 -119.410406 313 29569ft 486kts
12-Jul-20 10:18 34.572951 -119.525240 313 30899ft 481kts
12-Jul-20 10:19 34.667229 -119.639242 313 32305ft 474kts
12-Jul-20 10:20 34.759954 -119.751745 313 33715ft 468kts
12-Jul-20 10:21 34.851547 -119.863258 313 35021ft 463kts
12-Jul-20 10:22 34.942347 -119.974159 312 36230ft 460kts
12-Jul-20 10:23 35.032354 -120.084248 312 37350ft 456kts
12-Jul-20 10:24 35.121408 -120.193976 312 37999ft 457kts
12-Jul-20 10:25 35.216054 -120.296817 321 38003ft 455kts
12-Jul-20 10:26 35.317621 -120.389423 321 38003ft 455kts
12-Jul-20 10:27 35.419257 -120.482779 320 38006ft 455kts
12-Jul-20 10:28 35.520456 -120.576146 320 38012ft 455kts
12-Jul-20 10:29 35.623005 -120.667172 321 38019ft 455kts
12-Jul-20 10:30 35.726143 -120.758602 321 38019ft 456kts
12-Jul-20 10:31 35.828807 -120.849889 321 38018ft 455kts
12-Jul-20 10:32 35.931686 -120.941391 321 38016ft 455kts
12-Jul-20 10:33 36.033895 -121.032767 321 38015ft 454kts
12-Jul-20 10:34 36.136042 -121.124455 321 38016ft 452kts
12-Jul-20 10:35 36.237631 -121.215952 321 38019ft 452kts
12-Jul-20 10:36 36.339600 -121.308083 320 38020ft 452kts
12-Jul-20 10:37 36.441227 -121.400041 320 38025ft 452kts
12-Jul-20 10:38 36.542888 -121.492524 320 38028ft 452kts
12-Jul-20 10:39 36.645462 -121.583410 328 38028ft 455kts
12-Jul-20 10:40 36.768711 -121.623627 348 38031ft 464kts
12-Jul-20 10:41 36.896645 -121.647266 348 38036ft 464kts
12-Jul-20 10:42 37.023938 -121.671251 347 38033ft 463kts
12-Jul-20 10:43 37.151682 -121.695417 347 38025ft 463kts
12-Jul-20 10:44 37.278605 -121.719570 347 38020ft 462kts
12-Jul-20 10:45 37.406144 -121.743947 347 38018ft 462kts
12-Jul-20 10:46 37.533463 -121.768370 347 38005ft 462kts
12-Jul-20 10:47 37.660399 -121.792808 346 37999ft 462kts
12-Jul-20 10:48 37.787178 -121.817287 346 37998ft 461kts
12-Jul-20 10:49 37.914122 -121.841909 346 37999ft 461kts
12-Jul-20 10:50 38.041415 -121.866681 346 37991ft 461kts
12-Jul-20 10:51 38.168044 -121.891406 346 37984ft 461kts
12-Jul-20 10:52 38.295010 -121.916268 346 37980ft 461kts
12-Jul-20 10:53 38.422139 -121.941273 346 37989ft 461kts
12-Jul-20 10:54 38.548886 -121.966287 346 37991ft 461kts
12-Jul-20 10:56 38.676118 -121.991482 345 37988ft 461kts
12-Jul-20 10:57 38.802806 -122.016635 345 37994ft 461kts
12-Jul-20 10:58 38.930095 -122.042023 345 37993ft 461kts
12-Jul-20 10:59 39.056868 -122.067385 344 37985ft 461kts
12-Jul-20 11:00 39.183826 -122.092900 344 37987ft 461kts
12-Jul-20 11:01 39.310790 -122.118522 344 37988ft 461kts
12-Jul-20 11:02 39.437397 -122.144155 344 37992ft 461kts
12-Jul-20 11:03 39.564399 -122.169960 343 37993ft 461kts
12-Jul-20 11:04 39.691253 -122.195828 343 37992ft 461kts
12-Jul-20 11:05 39.817800 -122.221716 343 37996ft 461kts
12-Jul-20 11:06 39.944810 -122.247775 343 37995ft 461kts
12-Jul-20 11:07 40.071487 -122.273833 343 37990ft 461kts
12-Jul-20 11:08 40.198173 -122.300129 343 37990ft 461kts
12-Jul-20 11:09 40.325022 -122.326472 343 37995ft 461kts
12-Jul-20 11:10 40.451602 -122.352901 343 37994ft 460kts
12-Jul-20 11:11 40.577866 -122.379340 343 37995ft 460kts
12-Jul-20 11:12 40.704471 -122.405948 343 38020ft 459kts
12-Jul-20 11:13 40.830182 -122.432453 343 38066ft 458kts
12-Jul-20 11:14 40.956238 -122.459158 343 38096ft 458kts
12-Jul-20 11:14 41.061285 -122.481424 343 38120ft 458kts
12-Jul-20 11:15 41.187254 -122.508340 343 38146ft 458kts
12-Jul-20 11:17 41.333870 -122.539735 343 38161ft 457kts
12-Jul-20 11:17 41.438813 -122.562287 343 38165ft 456kts
12-Jul-20 11:18 41.563734 -122.589248 343 38163ft 456kts
12-Jul-20 11:19 41.689466 -122.616506 343 38160ft 456kts
12-Jul-20 11:20 41.814492 -122.643706 343 38161ft 456kts
12-Jul-20 11:21 41.940008 -122.671106 343 38162ft 456kts
12-Jul-20 11:22 42.064945 -122.698500 343 38164ft 455kts
12-Jul-20 11:23 42.189652 -122.725956 343 38161ft 454kts
12-Jul-20 11:24 42.314256 -122.753494 343 38160ft 454kts
12-Jul-20 11:25 42.438961 -122.781164 343 38162ft 453kts
12-Jul-20 11:26 42.563474 -122.808855 343 38172ft 453kts
12-Jul-20 11:27 42.687791 -122.836634 343 38169ft 453kts
12-Jul-20 11:28 42.812075 -122.864606 343 38179ft 450kts
12-Jul-20 11:29 42.940064 -122.864970 356 37865ft 466kts
12-Jul-20 11:30 43.069063 -122.853004 356 36869ft 466kts
12-Jul-20 11:31 43.198609 -122.841294 356 35292ft 468kts
12-Jul-20 11:32 43.329145 -122.829411 356 33495ft 472kts
12-Jul-20 11:33 43.461443 -122.817293 356 31693ft 478kts
12-Jul-20 11:34 43.591473 -122.805260 356 29887ft 455kts
12-Jul-20 11:35 43.715671 -122.793733 356 28087ft 442kts
12-Jul-20 11:36 43.836948 -122.782476 356 26287ft 432kts
12-Jul-20 11:37 43.956234 -122.771366 356 25540ft 428kts
12-Jul-20 11:38 44.074433 -122.760253 356 24839ft 422kts
12-Jul-20 11:39 44.189865 -122.749223 356 23341ft 413kts
12-Jul-20 11:40 44.302822 -122.738137 356 21505ft 400kts
12-Jul-20 11:41 44.412001 -122.727336 357 19840ft 385kts
12-Jul-20 11:42 44.516780 -122.716940 357 18333ft 369kts
12-Jul-20 11:43 44.617139 -122.706962 357 16835ft 356kts
12-Jul-20 11:44 44.715304 -122.697078 358 15211ft 350kts
12-Jul-20 11:45 44.811067 -122.687434 359 13761ft 339kts
12-Jul-20 11:46 44.901469 -122.678335 358 13069ft 309kts
12-Jul-20 11:47 44.986077 -122.669814 359 11890ft 302kts
12-Jul-20 11:48 45.069316 -122.661382 0 10746ft 295kts
12-Jul-20 11:49 45.150623 -122.653097 1 9565ft 289kts
12-Jul-20 11:50 45.229729 -122.645014 1 8543ft 277kts
12-Jul-20 11:51 45.301556 -122.671106 336 7581ft 264kts
12-Jul-20 11:52 45.369605 -122.708808 337 6802ft 260kts
12-Jul-20 11:53 45.434214 -122.744264 336 6110ft 237kts
12-Jul-20 11:54 45.493388 -122.776830 336 5478ft 223kts
12-Jul-20 11:55 45.550968 -122.808600 337 4984ft 220kts
12-Jul-20 11:56 45.594378 -122.864322 301 4544ft 215kts
12-Jul-20 11:57 45.626158 -122.936960 302 3468ft 206kts
12-Jul-20 11:58 45.670776 -122.943070 43 3068ft 185kts
12-Jul-20 11:59 45.689096 -122.878178 100 2837ft 179kts
12-Jul-20 12:00 45.669790 -122.814860 117 2784ft 171kts
12-Jul-20 12:01 45.647041 -122.754672 118 2297ft 175kts
12-Jul-20 12:02 45.623020 -122.692965 118 1314ft 162kts
12-Jul-20 12:03 45.601882 -122.638739 118 326ft 154kts
12-Jul-20 12:04 45.586701 -122.599796 118 38ft 30kts
12-Jul-20 12:05 45.587047 -122.597601 25 38ft 0kts
12-Jul-20 12:06 45.588617 -122.596399 30 38ft 0kts
12-Jul-20 12:07 45.588628 -122.596390 30 38ft 0kts

Navigation Log

Ident Type
Flight plan parsing failed, navigation log unavailable